Time;durP1;ratioP1;P1;durP2;ratioP2;P2;SDS_P1;SDS_P2;PMS_P1;PMS_P2;Temp;Humidity;BMP_temperature;BMP_pressure;BME280_temperature;BME280_humidity;BME280_pressure;Samples;Min_cycle;Max_cycle;Signal;HPM_P1;HPM_P2
2023/10/16 00:00:30;;;;;;;2.90;1.25;;;8.30;99.90;;;;;;4872734;29;19924;-82
2023/10/16 00:03:00;;;;;;;2.40;1.23;;;8.20;99.90;;;;;;4887078;29;20124;-82
2023/10/16 00:05:32;;;;;;;5.07;1.33;;;8.30;99.90;;;;;;4842741;29;20399;-81
2023/10/16 00:08:05;;;;;;;3.83;1.33;;;8.30;99.90;;;;;;4855445;29;20080;-81
2023/10/16 00:10:32;;;;;;;5.45;1.38;;;8.30;99.90;;;;;;4871567;29;20419;-83
2023/10/16 00:13:04;;;;;;;2.92;1.15;;;8.30;99.90;;;;;;4874856;29;20052;-84
2023/10/16 00:15:34;;;;;;;3.75;1.30;;;8.30;99.90;;;;;;4873072;29;20112;-84
2023/10/16 00:18:00;;;;;;;4.90;1.25;;;8.30;99.90;;;;;;4886605;29;20377;-83
2023/10/16 00:20:26;;;;;;;2.55;1.00;;;8.30;99.90;;;;;;4857577;29;20040;-83
2023/10/16 00:22:52;;;;;;;4.53;1.50;;;8.30;99.90;;;;;;4888416;29;20040;-84
2023/10/16 00:25:21;;;;;;;3.40;1.40;;;8.30;99.90;;;;;;4857801;29;20196;-83
2023/10/16 00:27:47;;;;;;;2.65;1.13;;;8.30;99.90;;;;;;4858443;29;20052;-83
2023/10/16 00:30:13;;;;;;;1.27;1.13;;;8.30;99.90;;;;;;4825716;29;20056;-83
2023/10/16 00:32:38;;;;;;;2.80;1.20;;;8.30;99.90;;;;;;4853510;29;20080;-82
2023/10/16 00:35:04;;;;;;;3.95;1.00;;;8.80;99.90;;;;;;4888943;29;20208;-83
2023/10/16 00:37:33;;;;;;;4.55;1.13;;;8.20;99.90;;;;;;4858326;29;20123;-82
2023/10/16 00:40:00;;;;;;;3.92;1.38;;;8.30;99.90;;;;;;4889174;29;20036;-82
2023/10/16 00:42:26;;;;;;;3.63;1.13;;;8.30;99.90;;;;;;4872326;29;20040;-82
2023/10/16 00:44:59;;;;;;;3.35;1.20;;;8.20;99.90;;;;;;4873326;29;20044;-81
2023/10/16 00:47:26;;;;;;;2.15;1.08;;;8.20;99.90;;;;;;4871565;29;20033;-82
2023/10/16 00:49:52;;;;;;;4.35;1.40;;;8.20;99.90;;;;;;4840772;29;20041;-82
2023/10/16 00:52:18;;;;;;;3.30;1.35;;;8.20;99.90;;;;;;4872952;29;20043;-82
2023/10/16 00:54:46;;;;;;;4.18;1.15;;;8.20;99.90;;;;;;4871543;29;20041;-82
2023/10/16 00:57:13;;;;;;;5.10;1.20;;;8.20;99.90;;;;;;4872646;29;20040;-82
2023/10/16 00:59:41;;;;;;;1.27;0.80;;;8.20;99.90;;;;;;4873041;29;20043;-81
2023/10/16 01:02:16;;;;;;;3.08;1.00;;;8.30;99.90;;;;;;4866551;29;20120;-81
2023/10/16 01:04:43;;;;;;;3.28;1.30;;;8.30;99.90;;;;;;4863271;29;20044;-82
2023/10/16 01:07:14;;;;;;;1.65;1.00;;;8.30;99.90;;;;;;4870699;29;20411;-82
2023/10/16 01:09:40;;;;;;;3.15;1.20;;;8.30;99.90;;;;;;4889749;29;20456;-82
2023/10/16 01:12:06;;;;;;;3.78;1.23;;;8.30;99.90;;;;;;4842086;29;20044;-83
2023/10/16 01:14:37;;;;;;;3.60;1.10;;;8.30;99.90;;;;;;4863460;29;20110;-82
2023/10/16 01:17:10;;;;;;;4.88;1.45;;;8.20;99.90;;;;;;4825527;29;20045;-82
2023/10/16 01:19:36;;;;;;;3.58;1.15;;;8.20;99.90;;;;;;4854973;29;20034;-82
2023/10/16 01:22:03;;;;;;;3.65;1.20;;;8.30;99.90;;;;;;4866377;29;20073;-82
2023/10/16 01:24:29;;;;;;;1.60;0.85;;;8.20;99.90;;;;;;4838051;29;20047;-82
2023/10/16 01:27:10;;;;;;;3.08;1.10;;;8.30;99.90;;;;;;4853082;29;20116;-82
2023/10/16 01:29:37;;;;;;;3.80;1.30;;;8.30;99.90;;;;;;4839491;29;20049;-83
2023/10/16 01:32:04;;;;;;;2.70;1.08;;;8.30;99.90;;;;;;4854858;29;20144;-82
2023/10/16 01:34:32;;;;;;;1.42;1.02;;;8.30;99.90;;;;;;4807400;29;20093;-83
2023/10/16 01:37:07;;;;;;;3.08;1.23;;;8.40;99.90;;;;;;4837825;29;20056;-83
2023/10/16 01:39:48;;;;;;;3.55;1.25;;;8.30;99.90;;;;;;4844264;29;20081;-84
2023/10/16 01:42:15;;;;;;;5.97;1.20;;;8.30;99.90;;;;;;4836134;29;20143;-83
2023/10/16 01:44:43;;;;;;;3.25;1.33;;;8.30;99.90;;;;;;4852271;29;20664;-83
2023/10/16 01:47:13;;;;;;;3.17;1.10;;;8.30;99.90;;;;;;4823436;29;20064;-83
2023/10/16 01:49:40;;;;;;;2.40;1.08;;;8.20;99.90;;;;;;4827427;29;20047;-83
2023/10/16 01:52:10;;;;;;;3.63;1.23;;;8.20;99.90;;;;;;4811927;29;20049;-83
2023/10/16 01:54:40;;;;;;;4.80;1.25;;;8.20;99.90;;;;;;4823734;29;20035;-83
2023/10/16 01:57:10;;;;;;;3.58;1.00;;;9.30;99.90;;;;;;4854936;29;20052;-83
2023/10/16 01:59:47;;;;;;;3.83;1.17;;;8.20;99.90;;;;;;4832795;29;20042;-83
2023/10/16 02:02:13;;;;;;;1.48;1.15;;;8.20;99.90;;;;;;4872471;29;20045;-83
2023/10/16 02:04:40;;;;;;;3.65;1.10;;;8.10;99.90;;;;;;4836977;29;20408;-82
2023/10/16 02:07:06;;;;;;;2.63;1.20;;;8.20;99.90;;;;;;4827618;29;20488;-82
2023/10/16 02:09:36;;;;;;;3.15;1.10;;;8.10;99.90;;;;;;4856064;29;20977;-82
2023/10/16 02:12:05;;;;;;;0.95;0.93;;;8.20;99.90;;;;;;4857158;29;20055;-83
2023/10/16 02:14:32;;;;;;;2.90;1.17;;;8.10;99.90;;;;;;4859524;29;20053;-82
2023/10/16 02:16:58;;;;;;;3.00;1.20;;;8.10;99.90;;;;;;4872353;29;20057;-82
2023/10/16 02:19:25;;;;;;;2.35;1.10;;;8.10;99.90;;;;;;4861655;29;20040;-82
2023/10/16 02:21:53;;;;;;;1.95;0.93;;;8.10;99.90;;;;;;4854265;29;20051;-82
2023/10/16 02:24:19;;;;;;;2.22;1.00;;;8.00;99.90;;;;;;4844083;29;20760;-83
2023/10/16 02:26:55;;;;;;;3.40;1.20;;;8.00;99.90;;;;;;4873386;29;20095;-82
2023/10/16 02:29:22;;;;;;;4.93;1.33;;;8.00;99.90;;;;;;4850143;29;20123;-83
2023/10/16 02:31:50;;;;;;;4.47;1.30;;;8.10;99.90;;;;;;4888741;29;20056;-82
2023/10/16 02:34:22;;;;;;;3.75;1.40;;;8.00;99.90;;;;;;4844797;29;20052;-82
2023/10/16 02:36:50;;;;;;;2.35;1.20;;;8.00;99.90;;;;;;4872092;29;20057;-82
2023/10/16 02:39:35;;;;;;;2.45;1.00;;;8.00;99.90;;;;;;4872443;29;20040;-83
2023/10/16 02:42:12;;;;;;;2.22;1.13;;;8.00;99.90;;;;;;4864565;29;20044;-82
2023/10/16 02:44:47;;;;;;;3.08;1.38;;;8.00;99.90;;;;;;4857715;29;20112;-82
2023/10/16 02:47:13;;;;;;;2.20;1.25;;;7.90;99.90;;;;;;4843194;29;20049;-82
2023/10/16 02:49:47;;;;;;;4.28;1.52;;;7.90;99.90;;;;;;4851932;29;20087;-82
2023/10/16 02:52:17;;;;;;;2.15;1.10;;;7.90;99.90;;;;;;4873881;29;20053;-83
2023/10/16 02:54:43;;;;;;;3.53;1.40;;;7.90;99.90;;;;;;4856591;29;20051;-82
2023/10/16 02:57:10;;;;;;;3.10;1.27;;;7.90;99.90;;;;;;4873395;29;20045;-81
2023/10/16 02:59:43;;;;;;;4.68;1.50;;;7.90;99.90;;;;;;4871356;29;20159;-82
2023/10/16 03:02:18;;;;;;;2.03;1.23;;;7.90;99.90;;;;;;4851551;29;20506;-82
2023/10/16 03:04:51;;;;;;;2.50;1.20;;;7.90;99.90;;;;;;4845513;29;20044;-82
2023/10/16 03:07:20;;;;;;;;;;;7.90;99.90;;;;;;4874150;29;20100;-82
2023/10/16 03:09:49;;;;;;;5.22;2.00;;;8.00;99.90;;;;;;4873769;29;19931;-82
2023/10/16 03:12:15;;;;;;;2.83;1.20;;;8.00;99.90;;;;;;4853432;29;20045;-83
2023/10/16 03:15:26;;;;;;;2.30;1.15;;;8.30;99.90;;;;;;4891749;29;20289;-83
2023/10/16 03:17:35;;;;;;;3.58;1.20;;;8.00;99.90;;;;;;4873485;29;20048;-82
2023/10/16 03:20:08;;;;;;;3.83;1.30;;;8.00;99.90;;;;;;4857471;29;20040;-82
2023/10/16 03:22:34;;;;;;;3.03;1.20;;;8.00;99.90;;;;;;4890717;29;20048;-82
2023/10/16 03:25:00;;;;;;;3.13;1.30;;;7.90;99.90;;;;;;4844579;29;20044;-82
2023/10/16 03:27:32;;;;;;;2.88;1.33;;;8.00;99.90;;;;;;4858277;29;20395;-82
2023/10/16 03:29:58;;;;;;;3.60;1.58;;;8.00;99.90;;;;;;4872901;29;20036;-82
2023/10/16 03:32:24;;;;;;;3.83;1.40;;;8.00;99.90;;;;;;4856402;29;20551;-82
2023/10/16 03:34:56;;;;;;;3.25;1.30;;;8.00;99.90;;;;;;4873118;29;20131;-82
2023/10/16 03:37:24;;;;;;;2.92;1.20;;;8.10;99.90;;;;;;4864086;29;20065;-82
2023/10/16 03:39:56;;;;;;;2.83;1.50;;;8.00;99.90;;;;;;4873605;29;20112;-82
2023/10/16 03:42:23;;;;;;;3.33;1.25;;;8.10;99.90;;;;;;4843834;29;20478;-82
2023/10/16 03:44:49;;;;;;;3.95;1.42;;;8.10;99.90;;;;;;4872791;29;20053;-82
2023/10/16 03:47:14;;;;;;;2.92;1.25;;;8.10;99.90;;;;;;4872719;29;20059;-82
2023/10/16 03:49:41;;;;;;;3.13;1.27;;;8.10;99.90;;;;;;4859218;29;20047;-82
2023/10/16 03:52:08;;;;;;;3.10;1.30;;;8.10;99.90;;;;;;4868699;29;20112;-82
2023/10/16 03:54:35;;;;;;;2.67;1.25;;;8.20;99.90;;;;;;4858462;29;20112;-82
2023/10/16 03:57:05;;;;;;;4.28;1.23;;;8.10;99.90;;;;;;4873765;29;20559;-83
2023/10/16 03:59:32;;;;;;;3.05;1.13;;;8.10;99.90;;;;;;4857650;29;20452;-83
2023/10/16 04:02:03;;;;;;;2.90;1.33;;;8.10;99.90;;;;;;4870940;29;20044;-82
2023/10/16 04:04:29;;;;;;;4.13;1.35;;;8.10;99.90;;;;;;4871521;29;20041;-83
2023/10/16 04:06:58;;;;;;;2.97;1.25;;;8.10;99.90;;;;;;4857193;29;20064;-83
2023/10/16 04:09:32;;;;;;;3.47;1.40;;;8.10;99.90;;;;;;4887849;29;20045;-83
2023/10/16 04:12:02;;;;;;;2.78;1.10;;;8.20;99.90;;;;;;4857770;29;20049;-82
2023/10/16 04:17:13;;;;;;;3.08;1.13;;;8.20;99.90;;;;;;4861115;29;20135;-83
2023/10/16 04:19:59;;;;;;;2.25;1.08;;;8.30;99.90;;;;;;4886783;29;20447;-81
2023/10/16 04:22:25;;;;;;;2.72;1.10;;;8.30;99.90;;;;;;4887391;29;20096;-82
2023/10/16 04:24:54;;;;;;;2.00;1.10;;;8.40;99.90;;;;;;4870159;29;20052;-82
2023/10/16 04:29:49;;;;;;;2.83;1.20;;;8.30;99.90;;;;;;4852991;29;20659;-82
2023/10/16 04:38:27;;;;;;;5.20;1.60;;;8.30;99.90;;;;;;4815811;29;20271;-82
2023/10/16 04:46:23;;;;;;;5.78;1.55;;;8.40;99.90;;;;;;4868436;29;20406;-83
2023/10/16 04:48:50;;;;;;;4.22;1.48;;;8.50;99.90;;;;;;4868670;29;20491;-82
2023/10/16 04:51:38;;;;;;;4.53;1.40;;;8.40;99.90;;;;;;4857061;29;20044;-82
2023/10/16 04:54:27;;;;;;;4.80;1.40;;;8.50;99.90;;;;;;4882203;29;20112;-81
2023/10/16 04:59:37;;;;;;;2.88;1.23;;;8.50;99.90;;;;;;4860805;29;20513;-83
2023/10/16 05:02:16;;;;;;;4.18;1.25;;;8.50;99.90;;;;;;4868159;29;20049;-82
2023/10/16 05:10:51;;;;;;;5.53;1.63;;;8.40;99.90;;;;;;4848541;29;20052;-82
2023/10/16 05:13:23;;;;;;;4.30;1.17;;;8.40;99.90;;;;;;4855798;29;20487;-82
2023/10/16 05:18:51;;;;;;;3.83;1.40;;;8.40;99.90;;;;;;4854620;29;20048;-82
2023/10/16 06:16:16;;;;;;;3.60;1.50;;;8.60;99.90;;;;;;4873817;29;20064;-82
2023/10/16 06:18:42;;;;;;;3.38;1.52;;;8.60;99.90;;;;;;4872504;29;20614;-82
2023/10/16 06:21:07;;;;;;;4.45;1.40;;;8.60;99.90;;;;;;4891569;29;20124;-82
2023/10/16 06:23:33;;;;;;;3.53;1.60;;;8.60;99.90;;;;;;4874231;29;20048;-82
2023/10/16 06:26:03;;;;;;;5.43;1.60;;;8.60;99.90;;;;;;4874108;29;20204;-84
2023/10/16 06:28:29;;;;;;;7.30;1.98;;;8.50;99.90;;;;;;4844015;29;20080;-82
2023/10/16 06:30:55;;;;;;;4.43;1.60;;;8.60;99.90;;;;;;4864954;29;21186;-82
2023/10/16 06:33:20;;;;;;;8.00;1.75;;;8.70;99.90;;;;;;4881542;29;20037;-83
2023/10/16 06:35:47;;;;;;;8.98;1.83;;;8.50;99.90;;;;;;4846575;29;20044;-82
2023/10/16 06:38:14;;;;;;;4.60;1.70;;;8.50;99.90;;;;;;4877962;29;20073;-82
2023/10/16 06:40:44;;;;;;;5.57;1.77;;;8.50;99.90;;;;;;4894176;29;20059;-82
2023/10/16 06:43:09;;;;;;;9.65;1.95;;;8.50;99.90;;;;;;4889203;29;20040;-83
2023/10/16 06:45:55;;;;;;;6.22;1.92;;;8.50;99.90;;;;;;4881038;29;20037;-83
2023/10/16 06:48:21;;;;;;;6.25;1.70;;;8.50;99.90;;;;;;4874414;29;20064;-83
2023/10/16 06:51:03;;;;;;;4.57;1.75;;;8.50;99.90;;;;;;4888230;29;20598;-83
2023/10/16 06:53:30;;;;;;;4.28;1.50;;;8.60;99.90;;;;;;4874235;29;20493;-82
2023/10/16 06:55:56;;;;;;;5.82;1.77;;;8.50;99.90;;;;;;4855784;29;20040;-83
2023/10/16 06:58:21;;;;;;;5.90;1.95;;;8.50;99.90;;;;;;4856777;29;20124;-82
2023/10/16 07:00:55;;;;;;;5.93;1.80;;;8.60;99.90;;;;;;4888137;29;20135;-82
2023/10/16 07:03:20;;;;;;;5.63;1.60;;;8.60;99.90;;;;;;4856565;29;20028;-83
2023/10/16 07:05:48;;;;;;;3.42;1.42;;;8.60;99.90;;;;;;4890762;29;20499;-82
2023/10/16 07:08:18;;;;;;;5.20;1.60;;;8.70;99.90;;;;;;4841836;29;20082;-83
2023/10/16 07:10:55;;;;;;;6.38;1.70;;;8.70;99.90;;;;;;4888993;29;20055;-83
2023/10/16 07:13:28;;;;;;;4.82;1.75;;;8.80;99.90;;;;;;4869754;29;20785;-83
2023/10/16 07:16:03;;;;;;;9.75;2.13;;;8.80;99.90;;;;;;4886395;29;20063;-83
2023/10/16 07:18:32;;;;;;;5.47;1.58;;;8.90;99.90;;;;;;4867803;29;20522;-83
2023/10/16 07:23:34;;;;;;;6.53;1.92;;;8.90;99.90;;;;;;4890223;29;20044;-82
2023/10/16 07:26:04;;;;;;;6.10;1.73;;;8.90;99.90;;;;;;4857843;29;20099;-83
2023/10/16 07:28:31;;;;;;;4.20;1.52;;;8.90;99.90;;;;;;4853511;29;20059;-82
2023/10/16 07:30:58;;;;;;;4.72;1.75;;;8.90;99.90;;;;;;4873197;29;20048;-83
2023/10/16 07:33:25;;;;;;;5.05;1.70;;;9.00;99.90;;;;;;4844442;29;20123;-83
2023/10/16 07:35:53;;;;;;;5.40;1.70;;;8.90;99.90;;;;;;4873305;29;20097;-82
2023/10/16 07:38:21;;;;;;;4.22;1.60;;;8.90;99.90;;;;;;4873596;29;20531;-83
2023/10/16 07:40:51;;;;;;;4.93;1.80;;;9.00;99.90;;;;;;4874694;29;20699;-82
2023/10/16 07:43:27;;;;;;;5.60;1.60;;;9.00;99.90;;;;;;4844656;29;20051;-83
2023/10/16 07:48:41;;;;;;;5.55;1.75;;;9.10;99.90;;;;;;4873079;29;20048;-83
2023/10/16 07:51:08;;;;;;;6.45;1.60;;;9.20;99.90;;;;;;4857931;29;20077;-83
2023/10/16 07:53:35;;;;;;;6.50;1.80;;;9.20;99.90;;;;;;4850490;29;20399;-83
2023/10/16 07:56:02;;;;;;;8.00;2.03;;;9.30;99.90;;;;;;4889395;29;20047;-83
2023/10/16 07:58:34;;;;;;;7.68;1.88;;;9.40;99.90;;;;;;4875331;29;20079;-82
2023/10/16 08:03:41;;;;;;;6.13;1.70;;;9.50;99.90;;;;;;4877561;29;20075;-83
2023/10/16 08:06:12;;;;;;;5.85;1.70;;;9.50;99.90;;;;;;4844485;29;20037;-82
2023/10/16 08:08:42;;;;;;;7.85;1.70;;;9.60;99.90;;;;;;4889994;29;20059;-82
2023/10/16 08:11:13;;;;;;;4.20;1.60;;;9.60;99.90;;;;;;4858196;29;20136;-82
2023/10/16 08:13:49;;;;;;;4.93;1.52;;;9.70;99.90;;;;;;4872560;29;20048;-82
2023/10/16 08:16:18;;;;;;;5.68;1.60;;;9.70;99.90;;;;;;4889024;29;20200;-82
2023/10/16 08:18:52;;;;;;;5.65;1.80;;;9.70;99.90;;;;;;4888929;29;20044;-82
2023/10/16 08:21:25;;;;;;;4.45;1.70;;;9.70;99.90;;;;;;4857227;29;20045;-82
2023/10/16 08:23:53;;;;;;;;;;;9.70;99.90;;;;;;4890030;29;20067;-82
2023/10/16 08:26:28;;;;;;;7.38;1.88;;;9.80;99.90;;;;;;4874421;29;19919;-82
2023/10/16 08:29:11;;;;;;;4.97;1.60;;;9.80;99.90;;;;;;4891279;29;20078;-82
2023/10/16 08:31:44;;;;;;;5.32;1.70;;;9.90;99.90;;;;;;4873674;29;20057;-82
2023/10/16 08:34:13;;;;;;;8.70;2.10;;;10.00;99.90;;;;;;4860100;29;20045;-82
2023/10/16 08:36:39;;;;;;;5.78;1.70;;;10.10;99.90;;;;;;4890359;29;20447;-82
2023/10/16 08:39:14;;;;;;;5.05;1.73;;;10.10;99.90;;;;;;4873273;29;20044;-82
2023/10/16 08:41:45;;;;;;;6.00;1.70;;;10.30;99.90;;;;;;4857640;29;20052;-82
2023/10/16 08:44:15;;;;;;;6.30;1.73;;;10.30;99.90;;;;;;4875243;29;20044;-82
2023/10/16 08:47:11;;;;;;;6.35;1.70;;;10.30;99.90;;;;;;4870712;29;20037;-82
2023/10/16 08:49:38;;;;;;;4.55;1.48;;;10.40;99.90;;;;;;4861446;29;20052;-82
2023/10/16 08:52:06;;;;;;;5.88;1.80;;;10.50;99.90;;;;;;4872530;29;20456;-82
2023/10/16 08:54:45;;;;;;;5.07;1.50;;;10.60;99.90;;;;;;4855446;29;20112;-82
2023/10/16 08:57:12;;;;;;;4.03;1.33;;;10.70;99.90;;;;;;4856313;29;20047;-82
2023/10/16 08:59:42;;;;;;;6.63;1.67;;;10.70;99.90;;;;;;4875791;29;20048;-82
2023/10/16 09:02:11;;;;;;;3.78;1.40;;;10.80;99.90;;;;;;4863597;29;20485;-81
2023/10/16 09:04:38;;;;;;;7.45;1.52;;;10.90;99.90;;;;;;4877188;29;20206;-81
2023/10/16 09:07:04;;;;;;;3.40;1.27;;;11.00;99.90;;;;;;4892276;29;20443;-82
2023/10/16 09:09:31;;;;;;;1.40;1.00;;;11.10;99.90;;;;;;4844655;29;20052;-82
2023/10/16 09:12:04;;;;;;;5.00;1.25;;;11.30;99.90;;;;;;4839434;29;20089;-82
2023/10/16 09:14:32;;;;;;;5.85;1.40;;;11.40;99.90;;;;;;4869685;29;20186;-82
2023/10/16 09:17:01;;;;;;;5.22;1.23;;;11.40;99.90;;;;;;4877585;29;20045;-81
2023/10/16 09:19:33;;;;;;;5.18;1.15;;;11.40;99.90;;;;;;4876989;29;20072;-81
2023/10/16 09:22:00;;;;;;;3.17;1.23;;;11.30;99.90;;;;;;4875060;29;20418;-81
2023/10/16 09:24:28;;;;;;;5.63;1.48;;;11.30;99.90;;;;;;4892508;29;20071;-81
2023/10/16 09:26:55;;;;;;;5.82;1.40;;;11.30;99.90;;;;;;4875512;29;20566;-81
2023/10/16 09:29:25;;;;;;;4.97;1.33;;;11.30;99.90;;;;;;4861648;29;20040;-81
2023/10/16 09:31:51;;;;;;;4.07;1.40;;;11.20;99.90;;;;;;4851570;29;20057;-81
2023/10/16 09:34:25;;;;;;;1.70;1.02;;;11.20;99.90;;;;;;4891033;29;20052;-81
2023/10/16 09:39:40;;;;;;;3.60;1.15;;;11.40;99.90;;;;;;4891112;29;20044;-81
2023/10/16 09:42:15;;;;;;;4.05;1.30;;;11.60;99.90;;;;;;4861218;29;20107;-80
2023/10/16 09:44:51;;;;;;;4.13;1.20;;;11.60;99.90;;;;;;4869880;29;20052;-81
2023/10/16 09:47:27;;;;;;;4.72;1.50;;;11.80;99.90;;;;;;4873755;29;20083;-81
2023/10/16 09:50:01;;;;;;;4.75;1.30;;;11.90;99.90;;;;;;4859295;29;20391;-81
2023/10/16 09:52:33;;;;;;;6.25;1.50;;;12.00;99.90;;;;;;4874146;29;20067;-81
2023/10/16 09:55:05;;;;;;;3.42;1.15;;;12.10;99.90;;;;;;4861655;29;20052;-81
2023/10/16 09:57:33;;;;;;;3.50;1.20;;;12.20;99.90;;;;;;4857890;29;20617;-81
2023/10/16 10:03:05;;;;;;;5.35;1.70;;;12.10;99.90;;;;;;4820912;29;20133;-81
2023/10/16 10:05:48;;;;;;;5.28;1.40;;;11.90;99.90;;;;;;4865340;29;20048;-81
2023/10/16 10:08:27;;;;;;;;;;;11.80;99.90;;;;;;4888809;29;20047;-81
2023/10/16 10:14:39;;;;;;;3.47;1.13;;;11.70;99.90;;;;;;4846884;29;20056;-81
2023/10/16 10:16:48;;;;;;;3.38;1.25;;;11.70;99.90;;;;;;4875830;29;20092;-81
2023/10/16 10:19:36;;;;;;;6.10;1.60;;;11.70;99.90;;;;;;4869084;29;20041;-81
2023/10/16 10:22:11;;;;;;;3.05;1.30;;;11.70;99.90;;;;;;4868724;29;20360;-81
2023/10/16 10:24:37;;;;;;;5.00;1.42;;;11.80;99.90;;;;;;4873173;29;20060;-81
2023/10/16 10:27:11;;;;;;;7.20;1.73;;;11.80;99.90;;;;;;4854710;29;20036;-81
2023/10/16 10:29:42;;;;;;;3.95;1.45;;;11.80;99.90;;;;;;4868303;29;20127;-81
2023/10/16 10:32:12;;;;;;;5.40;1.30;;;11.80;99.90;;;;;;4877945;29;20041;-82
2023/10/16 10:34:38;;;;;;;5.13;1.63;;;11.90;99.90;;;;;;4871983;29;20036;-82
2023/10/16 10:37:46;;;;;;;4.85;1.27;;;12.00;99.90;;;;;;4859803;29;20044;-82
2023/10/16 10:40:26;;;;;;;7.57;1.63;;;12.00;99.90;;;;;;4860726;29;20033;-81
2023/10/16 10:42:54;;;;;;;4.30;1.25;;;12.10;99.90;;;;;;4859472;29;20045;-82
2023/10/16 10:45:36;;;;;;;3.03;1.10;;;12.20;99.90;;;;;;4850177;29;20403;-81
2023/10/16 10:48:06;;;;;;;4.25;1.42;;;12.20;99.90;;;;;;4836833;29;20139;-82
2023/10/16 10:50:38;;;;;;;4.10;1.48;;;12.30;99.90;;;;;;4856459;29;20044;-81
2023/10/16 10:53:13;;;;;;;2.72;1.00;;;12.30;99.90;;;;;;4849802;29;20100;-81
2023/10/16 10:56:12;;;;;;;3.40;1.13;;;12.30;99.90;;;;;;4855068;29;20055;-81
2023/10/16 10:58:38;;;;;;;5.05;1.30;;;12.40;99.90;;;;;;4833589;29;20124;-81
2023/10/16 11:01:26;;;;;;;3.47;1.33;;;12.50;99.90;;;;;;4872799;29;20123;-81
2023/10/16 11:03:54;;;;;;;3.78;1.10;;;12.50;99.90;;;;;;4866170;29;20048;-81
2023/10/16 11:06:38;;;;;;;4.75;1.35;;;12.50;99.90;;;;;;4868552;29;20037;-81
2023/10/16 11:09:11;;;;;;;5.65;1.55;;;12.60;99.90;;;;;;4851147;29;20109;-81
2023/10/16 11:11:40;;;;;;;;;;;12.60;99.90;;;;;;4865823;29;20104;-81
2023/10/16 11:14:07;;;;;;;6.18;1.75;;;12.60;99.90;;;;;;4874307;29;19959;-81
2023/10/16 11:16:41;;;;;;;3.90;1.23;;;12.70;99.90;;;;;;4868476;29;20069;-81
2023/10/16 11:19:09;;;;;;;3.33;1.30;;;12.70;99.90;;;;;;4875003;29;20191;-81
2023/10/16 11:21:39;;;;;;;3.63;1.25;;;12.60;99.90;;;;;;4853400;29;20139;-81
2023/10/16 11:24:10;;;;;;;6.20;1.60;;;12.60;99.90;;;;;;4872866;29;20063;-80
2023/10/16 11:26:38;;;;;;;3.72;1.20;;;12.50;99.90;;;;;;4875352;29;20041;-81
2023/10/16 11:29:11;;;;;;;4.55;1.30;;;12.40;99.90;;;;;;4890354;29;20052;-81
2023/10/16 11:31:40;;;;;;;2.95;1.30;;;12.40;99.90;;;;;;4845073;29;20172;-81
2023/10/16 11:34:19;;;;;;;3.60;1.17;;;12.30;99.90;;;;;;4874080;29;20491;-80
2023/10/16 11:36:50;;;;;;;4.00;1.50;;;12.40;99.90;;;;;;4872886;29;20040;-80
2023/10/16 11:39:19;;;;;;;6.78;1.65;;;12.40;99.90;;;;;;4845907;29;20175;-81
2023/10/16 11:41:46;;;;;;;3.28;1.13;;;12.50;99.90;;;;;;4891355;29;20059;-81
2023/10/16 11:44:16;;;;;;;5.22;1.30;;;12.50;99.90;;;;;;4858580;29;20068;-81
2023/10/16 11:46:46;;;;;;;3.88;1.27;;;12.60;99.90;;;;;;4873661;29;20044;-81
2023/10/16 11:51:55;;;;;;;4.43;1.15;;;12.80;99.90;;;;;;4874858;29;20056;-81
2023/10/16 11:54:23;;;;;;;4.30;1.15;;;12.90;99.90;;;;;;4857592;29;20045;-81
2023/10/16 11:56:54;;;;;;;2.88;1.15;;;12.90;99.90;;;;;;4857856;29;20041;-81
2023/10/16 11:59:21;;;;;;;4.10;1.20;;;13.00;99.90;;;;;;4873488;29;20036;-81
2023/10/16 12:01:51;;;;;;;3.85;1.25;;;13.00;99.90;;;;;;4873783;29;20127;-80
2023/10/16 12:04:21;;;;;;;4.20;1.20;;;13.10;99.90;;;;;;4886578;29;20080;-80
2023/10/16 12:06:51;;;;;;;3.13;1.15;;;13.10;99.90;;;;;;4858679;29;20051;-81
2023/10/16 12:09:20;;;;;;;6.70;1.27;;;13.00;99.90;;;;;;4873339;29;20505;-81
2023/10/16 12:11:54;;;;;;;4.65;1.30;;;12.90;99.90;;;;;;4842937;29;20093;-80
2023/10/16 12:14:22;;;;;;;5.13;1.42;;;12.90;99.90;;;;;;4863912;29;20064;-81
2023/10/16 12:16:47;;;;;;;3.97;1.30;;;12.80;99.90;;;;;;4826342;29;20469;-81
2023/10/16 12:19:14;;;;;;;4.85;1.30;;;12.70;99.90;;;;;;4857301;29;20044;-81
2023/10/16 12:21:41;;;;;;;9.02;1.52;;;12.70;99.90;;;;;;4857425;29;20142;-81
2023/10/16 12:24:08;;;;;;;5.95;1.20;;;12.70;99.90;;;;;;4872829;29;20500;-81
2023/10/16 12:26:34;;;;;;;4.00;1.30;;;12.70;99.90;;;;;;4872969;29;20081;-81
2023/10/16 12:29:00;;;;;;;1.95;1.05;;;12.70;99.90;;;;;;4873572;29;20045;-81
2023/10/16 12:31:26;;;;;;;4.47;1.30;;;12.70;99.90;;;;;;4857457;29;20427;-80
2023/10/16 12:33:55;;;;;;;4.15;1.30;;;12.60;99.90;;;;;;4874497;29;20040;-81
2023/10/16 12:36:23;;;;;;;4.88;1.20;;;12.70;99.90;;;;;;4854543;29;20048;-81
2023/10/16 12:38:49;;;;;;;5.35;1.58;;;12.70;99.90;;;;;;4871467;29;20049;-81
2023/10/16 12:41:15;;;;;;;3.55;1.33;;;12.70;99.90;;;;;;4851496;29;20043;-81
2023/10/16 12:43:43;;;;;;;4.47;1.27;;;12.80;99.90;;;;;;4885971;29;20048;-81
2023/10/16 12:46:08;;;;;;;5.40;1.70;;;12.80;99.90;;;;;;4842894;29;20514;-81
2023/10/16 12:48:34;;;;;;;3.10;1.10;;;12.80;99.90;;;;;;4857848;29;20044;-81
2023/10/16 12:51:00;;;;;;;4.85;1.30;;;12.80;99.90;;;;;;4855677;29;20040;-81
2023/10/16 12:53:28;;;;;;;2.92;1.05;;;12.90;99.90;;;;;;4856977;29;20041;-81
2023/10/16 12:55:55;;;;;;;5.30;1.60;;;12.90;99.90;;;;;;4874725;29;20120;-81
2023/10/16 12:58:22;;;;;;;6.75;1.60;;;12.90;99.90;;;;;;4869958;29;20080;-81
2023/10/16 13:00:50;;;;;;;5.80;1.63;;;12.90;99.90;;;;;;4887447;29;20065;-81
2023/10/16 13:03:20;;;;;;;5.25;1.58;;;13.00;99.90;;;;;;4856038;29;20056;-81
2023/10/16 13:05:50;;;;;;;5.38;1.35;;;12.90;99.90;;;;;;4873209;29;20071;-81
2023/10/16 13:08:20;;;;;;;2.85;1.02;;;12.90;99.90;;;;;;4889839;29;20045;-81
2023/10/16 13:10:48;;;;;;;3.97;1.15;;;12.90;99.90;;;;;;4852054;29;20522;-81
2023/10/16 13:13:19;;;;;;;2.22;1.13;;;12.80;99.90;;;;;;4874049;29;20037;-81
2023/10/16 13:15:51;;;;;;;5.90;1.30;;;12.90;99.90;;;;;;4876520;29;20057;-81
2023/10/16 13:18:24;;;;;;;5.63;1.48;;;12.90;99.90;;;;;;4854854;29;20127;-81
2023/10/16 13:20:57;;;;;;;5.32;1.35;;;12.90;99.90;;;;;;4866671;29;20044;-81
2023/10/16 13:23:25;;;;;;;3.60;1.30;;;12.90;99.90;;;;;;4872161;29;20040;-81
2023/10/16 13:25:55;;;;;;;3.15;1.23;;;12.90;99.90;;;;;;4864763;29;20519;-81
2023/10/16 13:28:23;;;;;;;3.92;1.30;;;12.90;99.90;;;;;;4872233;29;20055;-81
2023/10/16 13:30:48;;;;;;;6.22;1.48;;;12.90;99.90;;;;;;4873122;29;20063;-81
2023/10/16 13:33:14;;;;;;;4.85;1.40;;;12.90;99.90;;;;;;4853942;29;20507;-81
2023/10/16 13:35:40;;;;;;;4.47;1.30;;;13.00;99.90;;;;;;4827572;29;20036;-81
2023/10/16 13:38:07;;;;;;;3.50;1.20;;;13.00;99.90;;;;;;4871693;29;20407;-81
2023/10/16 13:40:33;;;;;;;4.32;1.38;;;13.00;99.90;;;;;;4842898;29;20053;-81
2023/10/16 13:43:10;;;;;;;4.38;1.27;;;13.00;99.90;;;;;;4841450;29;20033;-81
2023/10/16 13:45:38;;;;;;;4.22;1.20;;;13.00;99.90;;;;;;4890429;29;20040;-81
2023/10/16 13:48:04;;;;;;;3.30;1.00;;;13.00;99.90;;;;;;4861030;29;20487;-81
2023/10/16 13:50:30;;;;;;;3.97;1.40;;;13.00;99.90;;;;;;4892011;29;20040;-81
2023/10/16 13:52:56;;;;;;;2.97;1.25;;;13.00;99.90;;;;;;4859978;29;20478;-81
2023/10/16 13:55:30;;;;;;;4.53;1.33;;;13.00;99.90;;;;;;4890214;29;20044;-81
2023/10/16 13:57:56;;;;;;;4.60;1.45;;;12.90;99.90;;;;;;4875779;29;20854;-81
2023/10/16 14:00:35;;;;;;;6.57;1.30;;;12.90;99.90;;;;;;4853594;29;20032;-81
2023/10/16 14:03:16;;;;;;;6.03;1.73;;;12.90;99.90;;;;;;4871467;29;20426;-81
2023/10/16 14:05:47;;;;;;;9.75;1.45;;;12.80;99.90;;;;;;4874765;29;20052;-81
2023/10/16 14:08:15;;;;;;;3.47;1.23;;;12.80;99.90;;;;;;4857540;29;20044;-81
2023/10/16 14:10:57;;;;;;;4.05;1.20;;;12.80;99.90;;;;;;4875236;29;20045;-81
2023/10/16 14:13:32;;;;;;;2.92;1.10;;;12.80;99.90;;;;;;4874090;29;20048;-81
2023/10/16 14:18:33;;;;;;;4.57;1.13;;;12.80;99.90;;;;;;4889926;29;20875;-81
2023/10/16 14:20:59;;;;;;;4.93;1.25;;;12.80;99.90;;;;;;4889778;29;20100;-81
2023/10/16 14:23:28;;;;;;;3.38;1.02;;;12.80;99.90;;;;;;4859092;29;20048;-81
2023/10/16 14:25:58;;;;;;;3.28;1.10;;;12.80;99.90;;;;;;4870911;29;20044;-81
2023/10/16 14:28:32;;;;;;;4.80;1.10;;;12.80;99.90;;;;;;4861650;29;20404;-81
2023/10/16 14:31:04;;;;;;;4.05;1.20;;;12.70;99.90;;;;;;4844109;29;20040;-80
2023/10/16 14:33:32;;;;;;;3.63;1.30;;;12.70;99.90;;;;;;4871896;29;20044;-81
2023/10/16 14:36:04;;;;;;;3.25;1.20;;;12.60;99.90;;;;;;4890345;29;20111;-81
2023/10/16 14:38:30;;;;;;;3.65;1.45;;;12.60;99.90;;;;;;4887072;29;20407;-80
2023/10/16 14:40:59;;;;;;;4.40;1.23;;;12.60;99.90;;;;;;4873589;29;20098;-81
2023/10/16 14:43:25;;;;;;;6.07;1.55;;;12.50;99.90;;;;;;4871087;29;20631;-80
2023/10/16 14:45:54;;;;;;;3.60;1.02;;;12.40;99.90;;;;;;4874234;29;20212;-81
2023/10/16 14:48:23;;;;;;;3.60;1.20;;;12.40;99.90;;;;;;4873592;29;20045;-80
2023/10/16 14:50:50;;;;;;;3.70;1.15;;;12.30;99.90;;;;;;4874398;29;20052;-80
2023/10/16 14:53:19;;;;;;;4.25;1.15;;;12.20;99.90;;;;;;4859098;29;20130;-80